RJTY/OKO METAR and TAF weather

Enter ICAO airport designator
Station Type Date Time Source
RJTY METAR 2019/12/07 16:56 UTC NOAA

RJTY 071656Z AUTO 00000KT 10SM CLR 03/00 A3011 RMK AO2 SLP207 T00260003 FZRANO $


Station Type Date Time Source
RJTY Decoded METAR 2019/12/07 16:56 UTC NOAA

Yokota Ab, Japan (RJTY) 35-45N 139-21E 142M
Dec 07, 2019 - 11:56 AM EST / 2019.12.07 1656 UTC
Wind: Calm:0
Visibility: 10 mile(s):0
Sky conditions: clear
Temperature: 36.7 F (2.6 C)
Dew Point: 32.5 F (0.3 C)
Relative Humidity: 84%
Pressure (altimeter): 30.11 in. Hg (1019 hPa)
ob: RJTY 071656Z AUTO 00000KT 10SM CLR 03/00 A3011 RMK AO2 SLP207 T00260003 FZRANO
cycle: 17

Station Type Date Time Source
RJTY TAF 2019/12/07 13:12 UTC NOAA

TAF TAF RJTY 071300Z 0713/0819 VRB06KT 9999 FEW170 QNH3010INS TX11/0805Z TNM01/0722Z LAST NO
AMDS AFT 0713 NEXT 0721

Example: see airport list